createdAt,value
2017-01-20T00:00:16.925Z,61.17
2017-01-20T00:00:48.191Z,61.12
2017-01-20T00:01:10.020Z,61.12
2017-01-20T00:01:41.278Z,61.25
2017-01-20T00:02:02.980Z,61.39
2017-01-20T00:02:24.777Z,61.53
2017-01-20T00:02:46.506Z,61.70
2017-01-20T00:03:08.222Z,61.73
2017-01-20T00:03:34.766Z,61.54
2017-01-20T00:03:56.473Z,61.60
2017-01-20T00:04:18.182Z,61.68
2017-01-20T00:04:44.664Z,61.69
2017-01-20T00:05:06.462Z,61.83
2017-01-20T00:05:28.169Z,61.88
2017-01-20T00:05:51.083Z,61.93
2017-01-20T00:06:14.020Z,61.97
2017-01-20T00:06:40.569Z,62.07
2017-01-20T00:07:02.290Z,61.98
2017-01-20T00:07:28.769Z,61.95
2017-01-20T00:07:50.487Z,61.94
2017-01-20T00:08:17.059Z,62.04
2017-01-20T00:08:38.774Z,62.01
2017-01-20T00:09:05.259Z,62.01
2017-01-20T00:09:26.976Z,61.92
2017-01-20T00:09:53.488Z,61.93
2017-01-20T00:10:15.192Z,61.89
2017-01-20T00:10:36.935Z,61.95
2017-01-20T00:10:58.707Z,62.00
2017-01-20T00:11:20.420Z,62.07
2017-01-20T00:11:42.153Z,62.33
2017-01-20T00:12:08.718Z,62.25
2017-01-20T00:12:30.428Z,62.48
2017-01-20T00:12:52.145Z,62.52
2017-01-20T00:13:55.412Z,62.34
2017-01-20T00:14:17.130Z,62.32
2017-01-20T00:15:24.458Z,62.33
2017-01-20T00:15:47.195Z,62.37
2017-01-20T00:16:18.461Z,62.46
2017-01-20T00:16:40.254Z,62.42
2017-01-20T00:17:01.998Z,62.30
2017-01-20T00:17:33.261Z,62.39
2017-01-20T00:17:55.050Z,62.26
2017-01-20T00:18:53.468Z,62.47
2017-01-20T00:19:15.182Z,62.36
2017-01-20T00:19:46.443Z,62.41
2017-01-20T00:20:08.242Z,62.29
2017-01-20T00:20:29.966Z,62.23
2017-01-20T00:21:42.022Z,62.43
2017-01-20T00:22:03.819Z,62.41
2017-01-20T00:22:30.347Z,62.46
2017-01-20T00:22:52.042Z,62.59
2017-01-20T00:23:18.603Z,62.58
2017-01-20T00:23:40.333Z,62.47
2017-01-20T00:24:02.049Z,62.55
2017-01-20T00:24:28.565Z,62.76
2017-01-20T00:24:50.361Z,62.84
2017-01-20T00:25:12.054Z,62.88
2017-01-20T00:25:38.535Z,62.87
2017-01-20T00:26:00.309Z,62.90
2017-01-20T00:26:31.559Z,62.71
2017-01-20T00:26:53.250Z,62.92
2017-01-20T00:27:15.044Z,62.95
2017-01-20T00:27:36.808Z,62.74
2017-01-20T00:27:58.526Z,62.80
2017-01-20T00:28:29.926Z,63.04
2017-01-20T00:28:51.574Z,63.14
2017-01-20T00:29:18.053Z,62.81
2017-01-20T00:29:39.753Z,62.81
2017-01-20T00:30:01.537Z,62.87
2017-01-20T00:30:23.270Z,62.87
2017-01-20T00:30:45.002Z,62.89
2017-01-20T00:31:06.726Z,62.97
2017-01-20T00:31:28.529Z,63.15
2017-01-20T00:31:50.223Z,63.19
2017-01-20T00:32:14.744Z,63.15
2017-01-20T00:32:36.491Z,63.06
2017-01-20T00:32:58.278Z,63.30
2017-01-20T00:33:24.813Z,63.21
2017-01-20T00:33:46.509Z,63.01
2017-01-20T00:34:13.067Z,63.02
2017-01-20T00:34:34.797Z,63.00
2017-01-20T00:35:01.299Z,62.97
2017-01-20T00:35:23.027Z,63.02
2017-01-20T00:35:49.581Z,62.99
2017-01-20T00:36:20.836Z,63.02
2017-01-20T00:36:42.556Z,63.05
2017-01-20T00:37:13.947Z,63.04
2017-01-20T00:37:35.595Z,62.89
2017-01-20T00:37:57.315Z,62.86
2017-01-20T00:38:23.798Z,62.88
2017-01-20T00:38:45.611Z,62.89
2017-01-20T00:39:07.372Z,63.04
2017-01-20T00:39:38.621Z,63.06
2017-01-20T00:40:00.431Z,63.07
2017-01-20T00:40:31.698Z,63.05
2017-01-20T00:40:53.400Z,62.94
2017-01-20T00:41:15.193Z,62.92
2017-01-20T00:41:46.511Z,62.95
2017-01-20T00:42:08.212Z,62.91
2017-01-20T00:42:39.483Z,63.07
2017-01-20T00:43:01.290Z,63.01
2017-01-20T00:43:27.776Z,63.06
2017-01-20T00:43:49.579Z,63.08
2017-01-20T00:44:52.851Z,63.17
2017-01-20T00:45:14.568Z,63.16
2017-01-20T00:45:45.839Z,63.28
2017-01-20T00:46:07.636Z,63.52
2017-01-20T00:46:29.340Z,63.51
2017-01-20T00:46:55.846Z,63.58
2017-01-20T00:47:17.635Z,63.48
2017-01-20T00:47:39.353Z,63.46
2017-01-20T00:48:05.840Z,63.40
2017-01-20T00:48:27.630Z,63.40
2017-01-20T00:48:54.159Z,63.45
2017-01-20T00:49:15.913Z,63.46
2017-01-20T00:49:42.461Z,63.68
2017-01-20T00:50:04.206Z,63.60
2017-01-20T00:50:25.939Z,63.60
2017-01-20T00:50:52.507Z,63.56
2017-01-20T00:51:14.227Z,63.58
2017-01-20T00:51:35.949Z,63.64
2017-01-20T00:52:02.425Z,63.54
2017-01-20T00:52:24.210Z,63.53
2017-01-20T00:52:50.687Z,63.48
2017-01-20T00:53:12.389Z,63.50
2017-01-20T00:53:38.940Z,63.49
2017-01-20T00:54:00.656Z,63.52
2017-01-20T00:54:27.148Z,63.67
2017-01-20T00:54:48.847Z,63.50
2017-01-20T00:55:15.435Z,63.50
2017-01-20T00:55:37.150Z,63.44
2017-01-20T00:55:58.860Z,63.66
2017-01-20T00:56:25.452Z,63.54
2017-01-20T00:56:47.177Z,63.56
2017-01-20T00:57:18.437Z,63.61
2017-01-20T00:57:40.208Z,63.59
2017-01-20T00:58:50.508Z,63.59
2017-01-20T00:59:12.255Z,63.65
2017-01-20T00:59:38.726Z,63.77
2017-01-20T01:00:00.437Z,63.85
2017-01-20T01:00:22.260Z,63.77
2017-01-20T01:00:48.752Z,63.87
2017-01-20T01:01:10.453Z,63.91
2017-01-20T01:01:32.155Z,63.96
2017-01-20T01:01:58.631Z,63.86
2017-01-20T01:02:20.328Z,63.93
2017-01-20T01:02:42.027Z,64.16
2017-01-20T01:03:03.739Z,64.17
2017-01-20T01:03:25.436Z,64.42
2017-01-20T01:03:47.128Z,64.41
2017-01-20T01:04:13.610Z,64.53
2017-01-20T01:04:35.319Z,64.47
2017-01-20T01:04:57.029Z,64.58
2017-01-20T01:05:18.729Z,64.44
2017-01-20T01:05:40.440Z,64.37
2017-01-20T01:06:02.226Z,64.31
2017-01-20T01:06:23.947Z,64.29
2017-01-20T01:06:45.628Z,64.17
2017-01-20T01:07:07.320Z,64.16
2017-01-20T01:07:29.026Z,64.17
2017-01-20T01:07:50.730Z,64.32
2017-01-20T01:08:12.428Z,64.39
2017-01-20T01:08:34.147Z,64.43
2017-01-20T01:09:00.642Z,64.23
2017-01-20T01:09:22.338Z,64.24
2017-01-20T01:09:48.839Z,64.21
2017-01-20T01:10:10.530Z,64.03
2017-01-20T01:10:32.223Z,64.06
2017-01-20T01:11:03.486Z,64.24
2017-01-20T01:11:25.184Z,64.37
2017-01-20T01:12:28.274Z,64.54
2017-01-20T01:12:49.980Z,64.46
2017-01-20T01:13:11.681Z,64.59
2017-01-20T01:13:33.390Z,64.81
2017-01-20T01:13:55.083Z,64.88
2017-01-20T01:14:16.777Z,64.89
2017-01-20T01:14:38.487Z,64.85
2017-01-20T01:15:00.183Z,64.80
2017-01-20T01:15:21.883Z,64.86
2017-01-20T01:15:48.353Z,64.82
2017-01-20T01:16:10.046Z,64.80
2017-01-20T01:16:36.528Z,64.75
2017-01-20T01:16:58.256Z,64.54
2017-01-20T01:17:22.736Z,64.49
2017-01-20T01:17:44.433Z,64.46
2017-01-20T01:18:10.906Z,64.32
2017-01-20T01:19:13.405Z,64.43
2017-01-20T01:19:35.101Z,64.46
2017-01-20T01:19:56.801Z,64.51
2017-01-20T01:20:18.502Z,64.68
2017-01-20T01:20:40.195Z,64.85
2017-01-20T01:21:01.904Z,64.76
2017-01-20T01:21:28.377Z,64.91
2017-01-20T01:21:50.076Z,64.97
2017-01-20T01:22:11.816Z,64.81
2017-01-20T01:22:33.527Z,64.83
2017-01-20T01:22:55.222Z,64.89
2017-01-20T01:23:21.712Z,64.99
2017-01-20T01:23:43.401Z,65.08
2017-01-20T01:24:14.646Z,65.19
2017-01-20T01:24:36.345Z,65.17
2017-01-20T01:25:02.832Z,65.27
2017-01-20T01:25:24.545Z,65.26
2017-01-20T01:25:46.241Z,65.45
2017-01-20T01:26:07.956Z,65.44
2017-01-20T01:26:29.651Z,65.49
2017-01-20T01:26:51.350Z,65.40
2017-01-20T01:27:13.076Z,65.52
2017-01-20T01:27:34.767Z,65.74
2017-01-20T01:27:56.473Z,65.84
2017-01-20T01:28:18.186Z,65.76
2017-01-20T01:28:39.881Z,65.73
2017-01-20T01:29:06.375Z,65.65
2017-01-20T01:29:28.076Z,65.56
2017-01-20T01:29:52.596Z,65.65
2017-01-20T01:30:14.306Z,65.54
2017-01-20T01:30:40.774Z,65.32
2017-01-20T01:31:02.475Z,65.19
2017-01-20T01:31:50.651Z,65.31
2017-01-20T01:32:17.137Z,65.25
2017-01-20T01:32:38.839Z,65.32
2017-01-20T01:35:26.551Z,65.58
2017-01-20T01:35:48.247Z,65.62
2017-01-20T01:36:09.965Z,65.69
2017-01-20T01:36:31.687Z,65.75
2017-01-20T01:36:53.386Z,65.76
2017-01-20T01:37:15.082Z,65.90
2017-01-20T01:37:36.797Z,65.89
2017-01-20T01:37:58.519Z,65.90
2017-01-20T01:38:20.221Z,65.94
2017-01-20T01:38:41.924Z,66.08
2017-01-20T01:40:25.268Z,66.31
2017-01-20T01:40:46.960Z,66.21
2017-01-20T01:41:08.692Z,66.25
2017-01-20T01:42:07.005Z,66.01
2017-01-20T01:42:28.709Z,65.97
2017-01-20T01:43:31.809Z,66.06
2017-01-20T01:43:53.514Z,66.09
2017-01-20T01:44:15.219Z,66.03
2017-01-20T01:44:36.951Z,66.18
2017-01-20T01:44:58.660Z,66.16
2017-01-20T01:45:20.368Z,66.12
2017-01-20T01:45:51.626Z,66.07
2017-01-20T01:46:13.342Z,66.19
2017-01-20T01:46:39.812Z,66.34
2017-01-20T01:47:01.508Z,66.40
2017-01-20T01:47:27.984Z,66.40
2017-01-20T01:47:49.699Z,66.42
2017-01-20T01:48:11.523Z,66.40
2017-01-20T01:48:33.235Z,66.42
2017-01-20T01:48:54.938Z,66.36
2017-01-20T01:49:16.650Z,66.35
2017-01-20T01:49:38.413Z,66.35
2017-01-20T01:50:00.109Z,66.32
2017-01-20T01:50:21.821Z,66.30
2017-01-20T01:50:53.079Z,66.29
2017-01-20T01:51:14.782Z,66.27
2017-01-20T01:51:38.499Z,66.29
2017-01-20T01:52:00.206Z,66.40
2017-01-20T01:52:21.930Z,66.28
2017-01-20T01:52:48.417Z,66.11
2017-01-20T01:53:10.125Z,65.88
2017-01-20T01:54:08.446Z,65.68
2017-01-20T01:54:30.151Z,65.56
2017-01-20T01:55:01.412Z,65.60
2017-01-20T01:55:23.139Z,65.72
2017-01-20T01:55:44.855Z,65.76
2017-01-20T01:56:16.115Z,65.88
2017-01-20T01:56:37.834Z,65.98
2017-01-20T01:57:04.314Z,66.28
2017-01-20T01:57:26.019Z,66.36
2017-01-20T01:57:47.719Z,66.40
2017-01-20T01:58:09.434Z,66.36
2017-01-20T01:58:31.136Z,66.49
2017-01-20T01:58:52.848Z,66.52
2017-01-20T01:59:24.096Z,66.62
2017-01-20T01:59:45.802Z,66.74
2017-01-20T02:00:07.496Z,66.86
2017-01-20T02:00:33.978Z,66.59
2017-01-20T02:00:55.702Z,66.38
2017-01-20T02:01:17.427Z,66.17
2017-01-20T02:01:39.139Z,66.02
2017-01-20T02:02:00.845Z,65.89
2017-01-20T02:02:32.103Z,65.87
2017-01-20T02:02:53.808Z,65.96
2017-01-20T02:03:25.075Z,66.20
2017-01-20T02:03:46.800Z,66.38
2017-01-20T02:04:08.602Z,66.33
2017-01-20T02:04:35.075Z,66.50
2017-01-20T02:04:56.772Z,66.62
2017-01-20T02:08:43.540Z,66.45
2017-01-20T02:09:05.252Z,66.40
2017-01-20T02:09:26.958Z,66.40
2017-01-20T02:09:53.440Z,66.39
2017-01-20T02:10:15.140Z,66.22
2017-01-20T02:11:18.234Z,65.97
2017-01-20T02:11:39.969Z,66.02
2017-01-20T02:12:11.220Z,66.24
2017-01-20T02:12:37.697Z,66.56
2017-01-20T02:13:40.791Z,66.85
2017-01-20T02:14:02.525Z,66.88
2017-01-20T02:14:33.783Z,66.92
2017-01-20T02:14:55.508Z,66.86
2017-01-20T02:16:02.808Z,66.84
2017-01-20T02:16:24.545Z,66.72
2017-01-20T02:17:31.854Z,66.53
2017-01-20T02:17:53.575Z,66.49
2017-01-20T02:18:51.902Z,66.43
2017-01-20T02:19:13.607Z,66.35
2017-01-20T02:19:40.087Z,66.40
2017-01-20T02:20:01.786Z,66.55
2017-01-20T02:20:33.051Z,66.60
2017-01-20T02:20:54.776Z,66.51
2017-01-20T02:21:16.490Z,66.42
2017-01-20T02:21:42.974Z,66.56
2017-01-20T02:22:04.679Z,66.47
2017-01-20T02:23:11.969Z,66.46
2017-01-20T02:23:33.700Z,66.43
2017-01-20T02:23:55.438Z,66.36
2017-01-20T02:24:26.708Z,66.64
2017-01-20T02:24:48.420Z,66.78
2017-01-20T02:26:00.526Z,67.06
2017-01-20T02:26:22.276Z,67.08
2017-01-20T02:27:34.340Z,66.95
2017-01-20T02:27:56.091Z,67.02
2017-01-20T02:28:17.825Z,67.21
2017-01-20T02:28:44.311Z,67.22
2017-01-20T02:29:06.049Z,67.14
2017-01-20T02:29:32.542Z,66.82
2017-01-20T02:29:54.254Z,66.61
2017-01-20T02:30:15.975Z,66.62
2017-01-20T02:30:47.246Z,66.59
2017-01-20T02:31:08.996Z,66.75
2017-01-20T02:31:40.270Z,66.80
2017-01-20T02:32:01.979Z,66.99
2017-01-20T02:33:14.132Z,66.98
2017-01-20T02:33:35.906Z,67.13
2017-01-20T02:33:57.624Z,67.28
2017-01-20T02:34:28.875Z,67.33
2017-01-20T02:34:50.600Z,67.39
2017-01-20T02:35:53.115Z,67.60
2017-01-20T02:36:19.604Z,67.36
2017-01-20T02:36:41.342Z,67.16
2017-01-20T02:37:12.603Z,67.06
2017-01-20T02:37:34.359Z,66.95
2017-01-20T02:37:56.091Z,66.95
2017-01-20T02:38:22.567Z,67.00
2017-01-20T02:38:44.315Z,67.05
2017-01-20T02:39:10.798Z,67.16
2017-01-20T02:39:32.561Z,67.21
2017-01-20T02:39:59.114Z,67.35
2017-01-20T02:40:20.849Z,67.38
2017-01-20T02:40:47.351Z,67.39
2017-01-20T02:41:09.085Z,67.45
2017-01-20T02:41:35.575Z,67.66
2017-01-20T02:41:57.284Z,67.67
2017-01-20T02:42:28.555Z,67.26
2017-01-20T02:42:50.378Z,67.03
2017-01-20T02:43:21.652Z,66.96
2017-01-20T02:43:43.363Z,67.05
2017-01-20T02:44:50.644Z,67.17
2017-01-20T02:45:12.406Z,67.07
2017-01-20T02:46:24.474Z,67.14
2017-01-20T02:46:46.205Z,67.24
2017-01-20T02:47:58.271Z,66.92
2017-01-20T02:48:20.007Z,66.92
2017-01-20T02:48:51.286Z,67.07
2017-01-20T02:49:13.021Z,66.79
2017-01-20T02:49:39.504Z,66.69
2017-01-20T02:50:01.231Z,66.61
2017-01-20T02:51:04.310Z,66.46
2017-01-20T02:51:26.060Z,66.31
2017-01-20T02:51:47.769Z,66.26
2017-01-20T02:52:14.339Z,66.18
2017-01-20T02:52:36.060Z,66.20
2017-01-20T02:53:07.312Z,66.01
2017-01-20T02:53:29.049Z,66.09
2017-01-20T02:54:00.323Z,66.33
2017-01-20T02:54:22.083Z,66.42
2017-01-20T02:54:53.356Z,66.59
2017-01-20T02:55:15.069Z,66.66
2017-01-20T02:55:36.790Z,66.79
2017-01-20T02:56:48.851Z,66.55
2017-01-20T02:57:10.573Z,66.40
2017-01-20T02:57:32.294Z,66.46
2017-01-20T02:58:03.555Z,66.46
2017-01-20T02:58:25.273Z,66.33
2017-01-20T02:58:47.015Z,66.37
2017-01-20T02:59:13.497Z,66.45
2017-01-20T02:59:35.203Z,66.68
2017-01-20T02:59:56.943Z,66.90
2017-01-20T03:00:23.454Z,66.86
2017-01-20T03:00:45.213Z,66.87
2017-01-20T03:01:52.512Z,66.43
2017-01-20T03:02:14.269Z,66.48
2017-01-20T03:03:24.282Z,66.78
2017-01-20T03:03:45.987Z,66.85
2017-01-20T03:04:48.505Z,66.92
2017-01-20T03:05:17.904Z,66.77
2017-01-20T03:05:39.612Z,66.80
2017-01-20T03:06:06.090Z,66.98
2017-01-20T03:08:34.221Z,67.22
2017-01-20T03:08:55.923Z,67.18
2017-01-20T03:09:54.332Z,67.20
2017-01-20T03:10:16.124Z,67.25
2017-01-20T03:11:19.274Z,66.88
2017-01-20T03:11:41.005Z,66.73
2017-01-20T03:12:07.497Z,66.71
2017-01-20T03:12:29.251Z,66.52
2017-01-20T03:13:27.587Z,66.58
2017-01-20T03:13:49.293Z,66.44
2017-01-20T03:14:11.011Z,66.56
2017-01-20T03:15:14.166Z,66.50
2017-01-20T03:15:35.914Z,66.67
2017-01-20T03:16:39.046Z,66.58
2017-01-20T03:17:00.758Z,66.58
2017-01-20T03:17:59.117Z,66.82
2017-01-20T03:18:20.845Z,66.91
2017-01-20T03:19:23.949Z,67.04
2017-01-20T03:19:45.651Z,66.88
2017-01-20T03:20:16.909Z,66.75
2017-01-20T03:20:38.627Z,66.81
2017-01-20T03:21:00.349Z,66.80
2017-01-20T03:22:03.453Z,66.88
2017-01-20T03:22:25.207Z,66.98
2017-01-20T03:22:56.486Z,66.96
2017-01-20T03:23:18.224Z,66.96
2017-01-20T03:23:39.964Z,67.06
2017-01-20T03:24:39.936Z,66.79
2017-01-20T03:25:01.667Z,66.69
2017-01-20T03:25:59.971Z,66.74
2017-01-20T03:26:21.673Z,66.79
2017-01-20T03:26:48.160Z,66.78
2017-01-20T03:27:09.865Z,66.90
2017-01-20T03:27:31.600Z,66.95
2017-01-20T03:27:53.309Z,67.02
2017-01-20T03:28:15.027Z,67.02
2017-01-20T03:28:36.739Z,67.13
2017-01-20T03:28:58.445Z,67.02
2017-01-20T03:29:29.702Z,67.06
2017-01-20T03:29:51.395Z,67.10
2017-01-20T03:30:13.104Z,67.32
2017-01-20T03:30:39.591Z,67.41
2017-01-20T03:31:01.303Z,67.32
2017-01-20T03:31:23.005Z,67.32
2017-01-20T03:31:44.717Z,67.34
2017-01-20T03:32:06.410Z,67.40
2017-01-20T03:32:28.118Z,67.47
2017-01-20T03:32:54.624Z,67.46
2017-01-20T03:33:16.324Z,67.35
2017-01-20T03:33:47.581Z,67.34
2017-01-20T03:34:09.290Z,67.37
2017-01-20T03:34:30.995Z,67.41
2017-01-20T03:34:52.708Z,67.49
2017-01-20T03:35:14.416Z,67.45
2017-01-20T03:35:40.896Z,67.55
2017-01-20T03:36:02.605Z,67.38
2017-01-20T03:36:29.091Z,67.35
2017-01-20T03:36:50.784Z,67.23
2017-01-20T03:37:12.484Z,66.77
2017-01-20T03:37:34.202Z,66.85
2017-01-20T03:37:55.923Z,66.96
2017-01-20T03:38:27.175Z,67.22
2017-01-20T03:38:48.909Z,67.09
2017-01-20T03:39:15.388Z,66.97
2017-01-20T03:39:37.088Z,66.98
2017-01-20T03:39:58.797Z,66.98
2017-01-20T03:40:25.297Z,67.17
2017-01-20T03:40:47.005Z,67.23
2017-01-20T03:41:08.708Z,67.24
2017-01-20T03:41:35.201Z,67.22
2017-01-20T03:41:56.900Z,67.20
2017-01-20T03:42:18.608Z,67.38
2017-01-20T03:42:40.311Z,67.47
2017-01-20T03:43:02.013Z,67.32
2017-01-20T03:43:23.726Z,67.28
2017-01-20T03:43:45.431Z,67.43
2017-01-20T03:44:07.166Z,67.59
2017-01-20T03:44:28.884Z,67.54
2017-01-20T03:45:27.201Z,67.39
2017-01-20T03:45:48.909Z,67.37
2017-01-20T03:46:10.631Z,67.24
2017-01-20T03:47:08.920Z,67.13
2017-01-20T03:47:30.618Z,67.15
2017-01-20T03:47:52.321Z,67.11
2017-01-20T03:48:14.030Z,67.20
2017-01-20T03:48:35.738Z,67.28
2017-01-20T03:49:02.228Z,67.30
2017-01-20T03:49:23.927Z,67.45
2017-01-20T03:49:55.182Z,67.62
2017-01-20T03:50:16.884Z,67.68
2017-01-20T03:50:38.596Z,67.67
2017-01-20T03:51:05.087Z,67.69
2017-01-20T03:51:26.788Z,67.75
2017-01-20T03:51:53.265Z,67.62
2017-01-20T03:52:14.973Z,67.55
2017-01-20T03:52:36.689Z,67.54
2017-01-20T03:53:03.166Z,67.40
2017-01-20T03:53:24.875Z,67.19
2017-01-20T03:53:46.590Z,67.02
2017-01-20T03:54:13.089Z,66.98
2017-01-20T03:54:34.788Z,67.13
2017-01-20T03:55:01.265Z,67.15
2017-01-20T03:55:22.964Z,67.25
2017-01-20T03:55:44.663Z,67.36
2017-01-20T03:56:06.377Z,67.41
2017-01-20T03:56:28.084Z,67.66
2017-01-20T03:56:54.561Z,67.61
2017-01-20T03:57:16.261Z,67.54
2017-01-20T03:57:42.753Z,67.41
2017-01-20T03:58:04.452Z,67.38
2017-01-20T03:58:26.168Z,67.29
2017-01-20T03:58:47.873Z,67.20
2017-01-20T03:59:09.576Z,67.18
2017-01-20T03:59:31.275Z,67.25
2017-01-20T03:59:57.777Z,67.27
2017-01-20T04:00:19.476Z,67.31
2017-01-20T04:00:41.211Z,67.34
2017-01-20T04:01:02.914Z,67.25
2017-01-20T04:01:24.629Z,67.19
2017-01-20T04:01:46.344Z,67.19
2017-01-20T04:02:08.049Z,67.24
2017-01-20T04:02:29.748Z,67.38
2017-01-20T04:02:51.464Z,67.31
2017-01-20T04:03:13.173Z,67.28
2017-01-20T04:03:34.878Z,67.13
2017-01-20T04:03:56.590Z,67.20
2017-01-20T04:04:54.882Z,67.18
2017-01-20T04:05:16.581Z,67.09
2017-01-20T04:05:43.102Z,67.13
2017-01-20T04:06:04.801Z,67.20
2017-01-20T04:06:36.066Z,67.33
2017-01-20T04:06:57.767Z,67.17
2017-01-20T04:07:19.460Z,67.20
2017-01-20T04:07:43.774Z,67.23
2017-01-20T04:08:15.035Z,67.24
2017-01-20T04:08:36.737Z,67.20
2017-01-20T04:08:58.440Z,67.21
2017-01-20T04:09:20.149Z,67.05
2017-01-20T04:09:41.847Z,67.15
2017-01-20T04:10:03.556Z,67.21
2017-01-20T04:10:25.264Z,67.23
2017-01-20T04:14:20.560Z,67.40
2017-01-20T04:14:42.250Z,67.47
2017-01-20T04:15:03.969Z,67.57
2017-01-20T04:16:02.257Z,67.56
2017-01-20T04:16:23.968Z,67.53
2017-01-20T04:16:45.674Z,67.49
2017-01-20T04:17:07.373Z,67.32
2017-01-20T04:17:29.072Z,67.39
2017-01-20T04:18:00.327Z,67.25
2017-01-20T04:18:24.980Z,67.34
2017-01-20T04:18:46.688Z,67.10
2017-01-20T04:19:08.393Z,67.07
2017-01-20T04:19:30.128Z,66.99
2017-01-20T04:19:51.920Z,67.02
2017-01-20T04:20:13.620Z,67.12
2017-01-20T04:20:44.877Z,67.06
2017-01-20T04:21:06.589Z,67.05
2017-01-20T04:21:28.291Z,67.08
2017-01-20T04:21:54.775Z,66.97
2017-01-20T04:22:16.483Z,66.80
2017-01-20T04:22:38.198Z,66.76
2017-01-20T04:22:59.907Z,66.71
2017-01-20T04:23:21.613Z,66.73
2017-01-20T04:23:43.312Z,66.87
2017-01-20T04:24:09.801Z,66.92
2017-01-20T04:24:31.527Z,67.03
2017-01-20T04:24:53.235Z,67.20
2017-01-20T04:25:14.940Z,67.13
2017-01-20T04:25:36.643Z,67.25
2017-01-20T04:25:58.348Z,67.23
2017-01-20T04:26:29.609Z,67.26
2017-01-20T04:26:51.324Z,67.13
2017-01-20T04:27:13.036Z,67.18
2017-01-20T04:27:34.739Z,67.29
2017-01-20T04:27:56.437Z,67.10
2017-01-20T04:28:18.147Z,66.84
2017-01-20T04:28:39.855Z,66.77
2017-01-20T04:29:01.572Z,66.84
2017-01-20T04:29:23.269Z,66.87
2017-01-20T04:29:45.000Z,66.83
2017-01-20T04:30:06.706Z,66.45
2017-01-20T04:30:28.423Z,66.36
2017-01-20T04:30:50.130Z,66.40
2017-01-20T04:31:11.835Z,66.47
2017-01-20T04:31:33.531Z,66.42
2017-01-20T04:32:04.792Z,66.48
2017-01-20T04:32:26.495Z,66.47
2017-01-20T04:32:57.755Z,66.66
2017-01-20T04:33:19.492Z,66.67
2017-01-20T04:33:41.212Z,66.44
2017-01-20T04:34:07.682Z,66.38
2017-01-20T04:34:29.390Z,66.41
2017-01-20T04:35:00.642Z,66.39
2017-01-20T04:36:32.936Z,66.64
2017-01-20T04:36:54.638Z,66.61
2017-01-20T04:37:16.357Z,66.53
2017-01-20T04:37:43.867Z,66.49
2017-01-20T04:38:05.572Z,66.41
2017-01-20T04:38:36.833Z,66.21
2017-01-20T04:38:58.580Z,66.07
2017-01-20T04:39:20.295Z,66.08
2017-01-20T04:39:51.553Z,66.12
2017-01-20T04:40:13.300Z,66.23
2017-01-20T04:40:35.044Z,66.44
2017-01-20T04:40:56.769Z,66.46
2017-01-20T04:41:18.484Z,66.61
2017-01-20T04:41:40.187Z,66.50
2017-01-20T04:42:06.663Z,66.47
2017-01-20T04:42:28.365Z,66.39
2017-01-20T04:42:54.852Z,66.20
2017-01-20T04:43:16.561Z,66.18
2017-01-20T04:43:43.054Z,66.32
2017-01-20T04:44:04.791Z,66.24
2017-01-20T04:44:26.504Z,66.24
2017-01-20T04:44:52.990Z,66.09
2017-01-20T04:45:14.734Z,66.10
2017-01-20T04:45:36.446Z,65.96
2017-01-20T04:45:58.167Z,65.94
2017-01-20T04:46:19.864Z,66.02
2017-01-20T04:46:41.572Z,65.97
2017-01-20T04:47:34.574Z,66.16
2017-01-20T04:48:01.061Z,66.17
2017-01-20T04:48:22.766Z,66.32
2017-01-20T04:48:44.500Z,66.25
2017-01-20T04:49:11.000Z,66.39
2017-01-20T04:49:32.734Z,66.27
2017-01-20T04:49:59.230Z,66.04
2017-01-20T04:50:20.949Z,66.08
2017-01-20T04:50:52.200Z,66.03
2017-01-20T04:51:13.909Z,66.09
2017-01-20T04:51:45.160Z,66.25
2017-01-20T04:52:06.882Z,66.16
2017-01-20T04:52:33.420Z,65.75
2017-01-20T04:52:55.122Z,65.69
2017-01-20T04:53:16.847Z,65.62
2017-01-20T04:53:43.339Z,65.74
2017-01-20T04:54:05.115Z,65.74
2017-01-20T04:54:36.389Z,65.55
2017-01-20T04:54:58.094Z,65.81
2017-01-20T04:55:29.352Z,66.04
2017-01-20T04:55:51.084Z,66.01
2017-01-20T04:56:12.805Z,66.17
2017-01-20T04:56:39.291Z,66.19
2017-01-20T04:57:01.001Z,65.99
2017-01-20T04:57:22.716Z,65.72
2017-01-20T04:57:49.220Z,65.63
2017-01-20T04:58:10.924Z,65.81
2017-01-20T04:58:32.632Z,65.99
2017-01-20T04:58:59.112Z,65.81
2017-01-20T04:59:30.395Z,65.75
2017-01-20T04:59:52.106Z,65.69
2017-01-20T05:00:13.832Z,65.67
2017-01-20T05:00:40.348Z,65.53
2017-01-20T05:01:02.066Z,65.51
2017-01-20T05:01:23.759Z,65.44
2017-01-20T05:01:45.499Z,65.40
2017-01-20T05:02:07.196Z,65.39
2017-01-20T05:02:28.914Z,65.42
2017-01-20T05:02:55.404Z,65.63
2017-01-20T05:03:17.212Z,65.69
2017-01-20T05:03:38.960Z,65.76
2017-01-20T05:04:00.668Z,65.73
2017-01-20T05:04:22.380Z,65.58
2017-01-20T05:04:44.108Z,65.64
2017-01-20T05:05:10.610Z,65.56
2017-01-20T05:05:32.310Z,65.58
2017-01-20T05:05:55.240Z,65.67
2017-01-20T05:06:21.728Z,65.71
2017-01-20T05:06:43.459Z,65.66
2017-01-20T05:07:05.164Z,65.51
2017-01-20T05:07:31.648Z,65.78
2017-01-20T05:07:53.356Z,65.62
2017-01-20T05:09:11.356Z,65.71
2017-01-20T05:10:17.934Z,65.68
2017-01-20T05:10:39.715Z,65.80
2017-01-20T05:11:01.437Z,65.86
2017-01-20T05:12:08.787Z,65.73
2017-01-20T05:12:30.541Z,65.69
2017-01-20T05:12:57.053Z,65.66
2017-01-20T05:13:18.778Z,65.51
2017-01-20T05:14:21.318Z,65.67
2017-01-20T05:14:43.075Z,65.59
2017-01-20T05:15:04.774Z,65.52
2017-01-20T05:15:31.264Z,65.48
2017-01-20T05:15:53.082Z,65.53
2017-01-20T05:16:19.565Z,65.37
2017-01-20T05:16:43.511Z,65.22
2017-01-20T05:17:14.790Z,65.41
2017-01-20T05:17:36.502Z,65.41
2017-01-20T05:17:58.224Z,65.34
2017-01-20T05:18:24.724Z,65.13
2017-01-20T05:18:46.471Z,65.18
2017-01-20T05:19:08.184Z,65.33
2017-01-20T05:19:29.991Z,65.41
2017-01-20T05:19:51.725Z,65.39
2017-01-20T05:20:13.444Z,65.42
2017-01-20T05:21:25.498Z,65.52
2017-01-20T05:21:47.229Z,65.60
2017-01-20T05:22:50.391Z,65.70
2017-01-20T05:23:12.113Z,65.63
2017-01-20T05:24:14.657Z,65.67
2017-01-20T05:24:36.352Z,65.65
2017-01-20T05:25:07.636Z,65.57
2017-01-20T05:25:29.367Z,65.63
2017-01-20T05:26:41.435Z,65.45
2017-01-20T05:27:03.150Z,65.67
2017-01-20T05:28:15.207Z,65.49
2017-01-20T05:28:36.935Z,65.49
2017-01-20T05:29:44.238Z,65.88
2017-01-20T05:30:05.941Z,65.86
2017-01-20T05:31:04.280Z,65.94
2017-01-20T05:31:25.989Z,66.00
2017-01-20T05:31:47.729Z,65.83
2017-01-20T05:32:09.448Z,65.55
2017-01-20T05:32:31.167Z,65.51
2017-01-20T05:33:02.421Z,65.56
2017-01-20T05:33:24.146Z,65.62
2017-01-20T05:33:45.841Z,65.72
2017-01-20T05:34:12.356Z,65.86
2017-01-20T05:34:34.062Z,65.80
2017-01-20T05:34:55.781Z,65.70
2017-01-20T05:35:17.486Z,65.82
2017-01-20T05:35:39.193Z,65.76
2017-01-20T05:36:00.907Z,65.83
2017-01-20T05:36:32.158Z,65.64
2017-01-20T05:36:53.890Z,65.58
2017-01-20T05:37:15.647Z,65.35
2017-01-20T05:37:42.127Z,65.37
2017-01-20T05:38:03.918Z,65.40
2017-01-20T05:38:25.634Z,65.33
2017-01-20T05:38:52.146Z,65.32
2017-01-20T05:39:13.893Z,65.42
2017-01-20T05:40:16.991Z,65.53
2017-01-20T05:40:38.728Z,65.64
2017-01-20T05:41:02.484Z,65.85
2017-01-20T05:41:24.204Z,65.83
2017-01-20T05:41:50.739Z,65.74
2017-01-20T05:42:22.009Z,65.79
2017-01-20T05:42:43.743Z,65.84
2017-01-20T05:43:05.455Z,65.82
2017-01-20T05:43:27.190Z,65.82
2017-01-20T05:43:48.915Z,65.88
2017-01-20T05:44:15.417Z,65.82
2017-01-20T05:44:37.135Z,65.76
2017-01-20T05:45:03.625Z,65.79
2017-01-20T05:45:25.343Z,65.88
2017-01-20T05:46:28.450Z,65.75
2017-01-20T05:46:50.159Z,65.69
2017-01-20T05:47:11.878Z,65.70
2017-01-20T05:47:38.368Z,65.83
2017-01-20T05:48:00.069Z,65.64
2017-01-20T05:48:26.567Z,65.57
2017-01-20T05:48:48.291Z,65.57
2017-01-20T05:49:14.799Z,65.66
2017-01-20T05:49:36.531Z,65.75
2017-01-20T05:50:02.997Z,65.76
2017-01-20T05:50:24.697Z,65.77
2017-01-20T05:50:46.403Z,65.84
2017-01-20T05:51:13.008Z,65.76
2017-01-20T05:51:34.707Z,65.43
2017-01-20T05:51:56.422Z,65.20
2017-01-20T05:52:22.921Z,65.41
2017-01-20T05:52:44.729Z,65.43
2017-01-20T05:53:06.441Z,65.42
2017-01-20T05:53:32.928Z,65.62
2017-01-20T05:53:54.710Z,65.59
2017-01-20T05:54:16.509Z,65.41
2017-01-20T05:54:42.992Z,65.48
2017-01-20T05:55:04.698Z,65.37
2017-01-20T05:55:26.413Z,65.32
2017-01-20T05:55:52.896Z,65.25